Time;durP1;ratioP1;P1;durP2;ratioP2;P2;SDS_P1;SDS_P2;PMS_P1;PMS_P2;Temp;Humidity;BMP_temperature;BMP_pressure;BME280_temperature;BME280_humidity;BME280_pressure;Samples;Min_cycle;Max_cycle;Signal;HPM_P1;HPM_P2
2023/06/30 00:00:37;;;;;;;3.63;3.30;;;;;;;16.12;100.00;98964.97;5112533;28;20186;-77
2023/06/30 00:03:04;;;;;;;5.50;3.60;;;;;;;16.07;100.00;98969.56;5112030;28;20572;-78
2023/06/30 00:05:31;;;;;;;5.90;3.57;;;;;;;16.03;100.00;98972.00;5111558;28;20241;-78
2023/06/30 00:07:58;;;;;;;3.70;3.40;;;;;;;15.99;100.00;98979.03;5098349;28;20226;-77
2023/06/30 00:10:25;;;;;;;4.40;3.50;;;;;;;15.97;100.00;98975.78;5108880;28;20203;-74
2023/06/30 00:12:52;;;;;;;4.37;3.73;;;;;;;15.94;100.00;98973.63;5104515;28;20242;-77
2023/06/30 00:15:19;;;;;;;3.90;3.53;;;;;;;15.87;100.00;98970.38;5100904;28;20290;-74
2023/06/30 00:17:48;;;;;;;4.33;3.90;;;;;;;15.83;100.00;98966.59;5101452;28;20192;-76
2023/06/30 00:20:15;;;;;;;4.10;3.77;;;;;;;15.80;100.00;98969.84;5110640;28;20191;-74
2023/06/30 00:22:41;;;;;;;4.60;3.80;;;;;;;15.77;100.00;98975.78;5111574;28;20673;-74
2023/06/30 00:25:08;;;;;;;5.63;3.90;;;;;;;15.68;100.00;98974.69;5097857;28;20223;-75
2023/06/30 00:27:36;;;;;;;4.87;4.07;;;;;;;15.61;100.00;98963.34;5111708;28;20270;-74
2023/06/30 00:30:04;;;;;;;4.70;4.00;;;;;;;15.59;100.00;98960.91;5111525;28;20698;-74
2023/06/30 00:32:32;;;;;;;5.33;3.70;;;;;;;15.58;100.00;98966.59;5093638;28;20200;-75
2023/06/30 00:35:00;;;;;;;4.37;3.97;;;;;;;15.54;100.00;98960.88;5088434;28;20215;-76
2023/06/30 00:37:26;;;;;;;3.97;3.67;;;;;;;15.54;100.00;98966.28;5093448;28;20234;-74
2023/06/30 00:39:53;;;;;;;4.17;3.77;;;;;;;15.49;100.00;98960.84;5111824;28;20188;-79
2023/06/30 00:42:20;;;;;;;4.47;3.90;;;;;;;15.44;100.00;98956.25;5106728;28;20201;-75
2023/06/30 00:44:46;;;;;;;4.73;4.10;;;;;;;15.35;100.00;98957.84;5107018;28;20220;-74
2023/06/30 00:47:13;;;;;;;4.47;3.70;;;;;;;15.31;100.00;98964.88;5111582;28;20184;-74
2023/06/30 00:49:40;;;;;;;4.07;3.77;;;;;;;15.27;100.00;98968.34;5111784;28;20213;-75
2023/06/30 00:52:07;;;;;;;4.10;3.70;;;;;;;15.26;100.00;98961.34;5076375;28;20666;-76
2023/06/30 00:54:34;;;;;;;4.60;4.20;;;;;;;15.26;100.00;98967.53;5097681;28;20211;-76
2023/06/30 00:57:05;;;;;;;4.90;4.00;;;;;;;15.21;100.00;98959.44;5115584;28;20216;-75
2023/06/30 00:59:31;;;;;;;4.70;4.30;;;;;;;15.21;100.00;98958.66;5097633;28;20195;-74
2023/06/30 01:02:10;;;;;;;4.50;4.10;;;;;;;15.20;100.00;98957.03;5113877;28;20271;-75
2023/06/30 01:04:42;;;;;;;4.30;4.00;;;;;;;15.16;100.00;98951.34;5091444;28;20223;-75
2023/06/30 01:07:16;;;;;;;4.80;4.30;;;;;;;15.15;100.00;98955.13;5091648;28;20216;-74
2023/06/30 01:09:49;;;;;;;4.43;4.03;;;;;;;15.12;100.00;98949.41;5115991;28;20237;-75
2023/06/30 01:12:17;;;;;;;4.63;4.23;;;;;;;15.12;100.00;98955.63;5097476;28;20620;-75
2023/06/30 01:14:45;;;;;;;5.93;4.10;;;;;;;15.14;100.00;98949.97;5110617;28;20269;-75
2023/06/30 01:17:13;;;;;;;5.90;4.13;;;;;;;15.15;100.00;98943.50;5097485;28;20223;-75
2023/06/30 01:19:44;;;;;;;4.53;4.13;;;;;;;15.13;100.00;98940.25;5079907;28;20211;-75
2023/06/30 01:22:19;;;;;;;4.40;4.00;;;;;;;15.15;100.00;98935.41;5097221;28;20743;-75
2023/06/30 01:24:47;;;;;;;4.43;4.07;;;;;;;15.17;100.00;98934.06;5115108;28;20200;-75
2023/06/30 01:27:14;;;;;;;4.43;4.07;;;;;;;15.18;100.00;98930.28;5080307;28;20203;-75
2023/06/30 01:29:42;;;;;;;4.70;4.13;;;;;;;15.18;100.00;98932.19;5097565;28;20245;-75
2023/06/30 01:32:09;;;;;;;3.93;3.63;;;;;;;15.19;100.00;98931.91;5115313;28;20191;-74
2023/06/30 01:34:36;;;;;;;4.43;4.00;;;;;;;15.18;100.00;98940.28;5114156;28;20250;-75
2023/06/30 01:37:03;;;;;;;4.37;3.83;;;;;;;15.11;100.00;98932.44;5115053;28;20211;-74
2023/06/30 01:39:30;;;;;;;4.17;3.77;;;;;;;15.11;100.00;98931.63;5105349;28;20196;-75
2023/06/30 01:41:56;;;;;;;4.30;3.90;;;;;;;15.07;100.00;98931.34;5106655;28;20287;-76
2023/06/30 01:44:23;;;;;;;4.50;4.10;;;;;;;15.03;100.00;98930.25;5111065;28;20192;-75
2023/06/30 01:46:50;;;;;;;4.70;4.30;;;;;;;15.00;100.00;98933.47;5096810;28;20275;-76
2023/06/30 01:49:17;;;;;;;4.07;3.77;;;;;;;14.98;100.00;98924.81;5115071;28;20191;-75
2023/06/30 01:51:44;;;;;;;4.10;3.77;;;;;;;14.96;100.00;98935.09;5115130;28;20608;-75
2023/06/30 01:54:11;;;;;;;4.43;4.00;;;;;;;14.90;100.00;98931.56;5080284;28;20215;-75
2023/06/30 01:56:46;;;;;;;4.83;4.10;;;;;;;14.87;100.00;98928.59;5096879;28;20681;-75
2023/06/30 01:59:14;;;;;;;6.07;3.90;;;;;;;14.83;100.00;98931.00;5088622;28;20207;-76
2023/06/30 02:01:41;;;;;;;5.10;4.33;;;;;;;14.78;100.00;98927.47;5092222;28;20203;-76
2023/06/30 02:04:09;;;;;;;4.70;4.30;;;;;;;14.76;100.00;98933.13;5090472;28;20236;-76
2023/06/30 02:06:36;;;;;;;4.90;4.37;;;;;;;14.72;100.00;98936.59;5108984;28;20208;-75
2023/06/30 02:09:03;;;;;;;4.27;3.97;;;;;;;14.70;100.00;98934.16;5109995;28;20192;-77
2023/06/30 02:11:29;;;;;;;4.47;3.87;;;;;;;14.68;100.00;98936.31;5081733;28;20205;-76
2023/06/30 02:13:56;;;;;;;4.20;3.80;;;;;;;14.63;100.00;98930.09;5092814;28;20255;-76
2023/06/30 02:16:23;;;;;;;4.50;4.10;;;;;;;14.58;100.00;98933.56;5108273;28;20187;-76
2023/06/30 02:18:54;;;;;;;4.70;4.40;;;;;;;14.53;100.00;98934.38;5106864;28;20279;-77
2023/06/30 02:21:22;;;;;;;4.67;4.13;;;;;;;14.48;100.00;98931.63;5114322;28;20253;-76
2023/06/30 02:23:49;;;;;;;4.73;4.20;;;;;;;14.42;100.00;98932.69;5114238;28;20196;-76
2023/06/30 02:26:16;;;;;;;4.57;4.17;;;;;;;14.42;100.00;98926.47;5111492;28;20219;-76
2023/06/30 02:28:42;;;;;;;4.53;3.90;;;;;;;14.36;100.00;98930.22;5108641;28;20231;-76
2023/06/30 02:31:09;;;;;;;5.53;4.23;;;;;;;14.29;100.00;98929.59;5114112;28;20212;-76
2023/06/30 02:33:36;;;;;;;5.47;4.30;;;;;;;14.26;100.00;98927.44;5113923;28;20202;-76
2023/06/30 02:36:03;;;;;;;5.20;4.40;;;;;;;14.24;100.00;98927.69;5086413;28;20245;-76
2023/06/30 02:38:30;;;;;;;4.63;4.23;;;;;;;14.22;100.00;98932.53;5093264;28;20249;-76
2023/06/30 02:40:57;;;;;;;4.50;4.10;;;;;;;14.17;100.00;98923.59;5095480;28;20246;-76
2023/06/30 02:43:23;;;;;;;4.93;4.40;;;;;;;14.13;100.00;98928.72;5113854;28;20373;-77
2023/06/30 02:45:50;;;;;;;4.47;4.07;;;;;;;14.11;100.00;98925.47;5095387;28;20216;-76
2023/06/30 02:48:17;;;;;;;4.67;4.10;;;;;;;14.15;100.00;98921.16;5113649;28;20184;-75
2023/06/30 02:50:44;;;;;;;4.53;4.13;;;;;;;14.17;100.00;98920.91;5112378;28;20191;-76
2023/06/30 02:53:12;;;;;;;4.93;4.53;;;;;;;14.08;100.00;98913.31;5095358;28;20659;-75
2023/06/30 02:55:39;;;;;;;5.43;4.40;;;;;;;14.06;100.00;98917.34;5090892;28;20240;-76
2023/06/30 02:58:09;;;;;;;4.87;4.47;;;;;;;14.05;100.00;98915.72;5095255;28;20203;-76
2023/06/30 03:00:39;;;;;;;4.53;4.23;;;;;;;14.05;100.00;98913.81;5094389;28;20214;-76
2023/06/30 03:03:06;;;;;;;5.00;4.57;;;;;;;14.02;100.00;98930.50;5094393;28;20212;-76
2023/06/30 03:05:36;;;;;;;4.50;4.20;;;;;;;14.03;100.00;98918.69;5092040;28;20569;-76
2023/06/30 03:08:05;;;;;;;4.20;3.90;;;;;;;14.04;100.00;98919.50;5088877;28;20678;-75
2023/06/30 03:10:32;;;;;;;6.43;4.10;;;;;;;14.04;100.00;98914.09;5087686;28;20191;-75
2023/06/30 03:12:59;;;;;;;5.10;4.60;;;;;;;14.04;100.00;98922.97;5102635;28;20230;-76
2023/06/30 03:15:26;;;;;;;5.50;4.50;;;;;;;14.06;100.00;98928.09;5104298;28;20208;-75
2023/06/30 03:17:55;;;;;;;4.67;4.17;;;;;;;14.07;100.00;98927.06;5087731;28;20214;-74
2023/06/30 03:20:23;;;;;;;4.97;4.47;;;;;;;14.07;100.00;98927.06;5089817;28;20250;-75
2023/06/30 03:22:52;;;;;;;4.47;4.17;;;;;;;14.11;100.00;98918.19;5087615;28;20219;-77
2023/06/30 03:25:19;;;;;;;5.80;4.47;;;;;;;14.19;100.00;98918.75;5090227;28;20690;-75
2023/06/30 03:27:45;;;;;;;5.97;4.97;;;;;;;14.22;100.00;98916.38;5103864;28;20679;-75
2023/06/30 03:30:12;;;;;;;5.60;5.10;;;;;;;14.22;100.00;98920.94;5090449;28;20200;-75
2023/06/30 03:32:43;;;;;;;5.47;4.97;;;;;;;14.25;100.00;98913.16;5085851;28;20237;-75
2023/06/30 03:35:10;;;;;;;5.10;4.60;;;;;;;14.28;100.00;98912.63;5085933;28;20649;-75
2023/06/30 03:37:36;;;;;;;5.20;4.80;;;;;;;14.37;100.00;98905.69;5092392;28;20407;-74
2023/06/30 03:40:05;;;;;;;7.53;5.33;;;;;;;14.49;100.00;98919.78;5094702;28;20244;-75
2023/06/30 03:42:32;;;;;;;5.07;4.73;;;;;;;14.62;100.00;98913.09;5094618;28;20249;-75
2023/06/30 03:45:00;;;;;;;5.70;5.20;;;;;;;14.74;100.00;98913.72;5094583;28;20191;-76
2023/06/30 03:47:30;;;;;;;5.53;5.03;;;;;;;14.84;100.00;98905.63;5094578;28;20195;-77
2023/06/30 03:49:57;;;;;;;5.40;4.90;;;;;;;14.88;100.00;98900.56;5112803;28;20195;-76
2023/06/30 03:52:25;;;;;;;5.50;4.97;;;;;;;14.97;100.00;98902.47;5103399;28;20195;-77
2023/06/30 03:54:52;;;;;;;5.10;4.50;;;;;;;15.10;100.00;98901.13;5107207;28;20250;-75
2023/06/30 03:57:19;;;;;;;5.07;4.60;;;;;;;15.21;100.00;98894.66;5108688;28;20608;-75
2023/06/30 03:59:46;;;;;;;5.33;4.83;;;;;;;15.35;100.00;98908.50;5112550;28;20180;-75
2023/06/30 04:02:13;;;;;;;5.13;4.63;;;;;;;15.47;100.00;98897.41;5093473;28;20188;-75
2023/06/30 04:04:40;;;;;;;5.10;4.70;;;;;;;15.62;100.00;98908.25;5112570;28;20235;-75
2023/06/30 04:07:06;;;;;;;5.00;4.60;;;;;;;15.78;100.00;98907.16;5112324;28;20701;-75
2023/06/30 04:09:33;;;;;;;4.70;4.40;;;;;;;15.99;100.00;98906.09;5112552;28;20240;-75
2023/06/30 04:12:00;;;;;;;5.00;4.60;;;;;;;16.94;100.00;98903.38;5094396;28;20726;-75
2023/06/30 04:14:27;;;;;;;4.70;4.30;;;;;;;18.78;100.00;98907.81;5104965;28;20279;-75
2023/06/30 04:16:53;;;;;;;4.33;3.93;;;;;;;20.51;100.00;98902.13;5112296;28;20192;-74
2023/06/30 04:19:22;;;;;;;5.13;3.90;;;;;;;21.12;100.00;98902.78;5107238;28;20192;-75
2023/06/30 04:21:49;;;;;;;4.27;3.90;;;;;;;21.72;100.00;98909.56;5112098;28;20201;-74
2023/06/30 04:24:16;;;;;;;5.27;3.97;;;;;;;22.54;100.00;98900.09;5112238;28;20189;-74
2023/06/30 04:26:42;;;;;;;4.10;3.80;;;;;;;23.09;100.00;98906.72;5111989;28;20277;-75
2023/06/30 04:29:09;;;;;;;4.40;3.73;;;;;;;23.26;100.00;98900.47;5107082;28;20202;-76
2023/06/30 04:31:36;;;;;;;4.20;3.90;;;;;;;23.28;100.00;98906.44;5111939;28;20187;-75
2023/06/30 04:34:02;;;;;;;4.13;3.80;;;;;;;23.75;100.00;98898.41;5111721;28;20194;-76
2023/06/30 04:36:29;;;;;;;4.30;4.00;;;;;;;23.59;100.00;98898.91;5102916;28;20292;-76
2023/06/30 04:38:57;;;;;;;4.03;3.73;;;;;;;23.40;100.00;98892.91;5111843;28;20187;-76
2023/06/30 04:41:24;;;;;;;3.77;3.47;;;;;;;23.05;100.00;98894.03;5112015;28;20185;-76
2023/06/30 04:43:50;;;;;;;4.23;3.83;;;;;;;22.39;100.00;98895.88;5112175;28;20200;-75
2023/06/30 04:46:17;;;;;;;4.43;4.03;;;;;;;21.80;100.00;98887.00;5111856;28;20216;-75
2023/06/30 04:48:43;;;;;;;4.50;4.20;;;;;;;21.37;100.00;98883.16;5099243;28;20221;-75
2023/06/30 04:51:10;;;;;;;4.23;3.87;;;;;;;20.87;100.00;98880.41;5103773;28;20292;-75
2023/06/30 04:53:38;;;;;;;4.80;4.40;;;;;;;20.66;100.00;98881.97;5105742;28;20183;-76
2023/06/30 04:56:05;;;;;;;4.93;4.30;;;;;;;20.54;100.00;98881.66;5104702;28;20687;-75
2023/06/30 04:58:32;;;;;;;5.50;4.53;;;;;;;20.34;100.00;98879.34;5098082;28;20189;-75
2023/06/30 05:00:58;;;;;;;6.07;4.67;;;;;;;20.24;100.00;98888.47;5106880;28;20196;-75
2023/06/30 05:03:25;;;;;;;4.80;4.40;;;;;;;20.17;100.00;98885.31;5105664;28;20709;-76
2023/06/30 05:05:52;;;;;;;4.60;4.20;;;;;;;20.10;100.00;98880.28;5111137;28;20223;-76
2023/06/30 05:08:19;;;;;;;5.30;4.80;;;;;;;20.03;100.00;98877.13;5093141;28;20725;-75
2023/06/30 05:10:45;;;;;;;5.23;4.50;;;;;;;19.93;100.00;98884.66;5103598;28;20217;-75
2023/06/30 05:13:12;;;;;;;4.33;3.93;;;;;;;19.87;100.00;98881.25;5110284;28;20199;-76
2023/06/30 05:15:39;;;;;;;4.93;4.57;;;;;;;19.98;100.00;98881.84;5110258;28;20223;-76
2023/06/30 05:18:06;;;;;;;5.53;5.00;;;;;;;19.99;100.00;98880.75;5108555;28;20599;-75
2023/06/30 05:20:33;;;;;;;6.50;4.77;;;;;;;20.17;100.00;98882.59;5104389;28;20272;-76
2023/06/30 05:23:00;;;;;;;6.10;4.40;;;;;;;20.29;100.00;98879.41;5111434;28;20230;-75
2023/06/30 05:25:27;;;;;;;5.90;4.33;;;;;;;20.25;100.00;98876.47;5095123;28;20197;-74
2023/06/30 05:27:54;;;;;;;4.87;4.47;;;;;;;20.47;100.00;98873.91;5111657;28;20750;-77
2023/06/30 05:30:20;;;;;;;6.80;5.03;;;;;;;20.65;100.00;98881.16;5111826;28;22395;-76
2023/06/30 05:32:47;;;;;;;5.30;4.80;;;;;;;20.63;100.00;98874.38;5111308;28;20272;-75
2023/06/30 05:35:14;;;;;;;6.17;4.50;;;;;;;20.56;100.00;98876.72;5109649;28;20216;-75
2023/06/30 05:37:40;;;;;;;7.93;4.93;;;;;;;20.85;100.00;98876.41;5110240;28;20196;-74
2023/06/30 05:40:07;;;;;;;5.53;4.80;;;;;;;20.85;100.00;98877.22;5112746;28;20719;-76
2023/06/30 05:42:34;;;;;;;5.13;4.60;;;;;;;21.08;100.00;98883.53;5115020;28;20653;-76
2023/06/30 05:45:00;;;;;;;7.37;5.20;;;;;;;20.85;100.00;98871.75;5105883;28;20199;-76
2023/06/30 05:47:27;;;;;;;5.20;4.70;;;;;;;20.88;100.00;98871.16;5106012;28;20226;-76
2023/06/30 05:49:54;;;;;;;5.20;4.70;;;;;;;21.16;100.00;98882.00;5110433;28;20246;-75
2023/06/30 05:52:24;;;;;;;4.83;4.43;;;;;;;21.51;100.00;98890.16;5110440;28;20221;-75
2023/06/30 05:54:51;;;;;;;5.93;4.57;;;;;;;21.85;100.00;98889.59;5100164;28;20199;-74
2023/06/30 05:57:18;;;;;;;8.47;4.73;;;;;;;21.98;100.00;98887.16;5114612;28;20284;-75
2023/06/30 05:59:44;;;;;;;5.25;4.38;;;;;;;22.19;100.00;98886.31;5096960;28;20203;-75
2023/06/30 06:02:11;;;;;;;7.68;4.60;;;;;;;22.54;100.00;98900.91;5112333;28;20192;-75
2023/06/30 06:04:38;;;;;;;6.20;4.53;;;;;;;22.76;100.00;98892.69;5114419;28;20273;-75
2023/06/30 06:07:05;;;;;;;6.60;4.30;;;;;;;23.02;100.00;98892.72;5114380;28;20594;-75
2023/06/30 06:09:32;;;;;;;7.32;4.90;;;;;;;23.05;100.00;98885.84;5114379;28;20248;-76
2023/06/30 06:12:01;;;;;;;4.72;4.32;;;;;;;23.24;100.00;98878.09;5114404;28;20610;-75
2023/06/30 06:14:27;;;;;;;6.13;4.97;;;;;;;23.32;100.00;98887.47;5111624;28;20223;-74
2023/06/30 06:16:54;;;;;;;5.40;4.90;;;;;;;23.31;100.00;98883.91;5114142;28;20242;-76
2023/06/30 06:19:21;;;;;;;5.65;4.93;;;;;;;23.11;100.00;98882.59;5107278;28;20245;-75
2023/06/30 06:21:48;;;;;;;5.53;4.10;;;;;;;23.08;100.00;98877.78;5112614;28;20295;-75
2023/06/30 06:24:16;;;;;;;5.40;4.45;;;;;;;22.98;100.00;98877.28;5113928;28;20202;-76
2023/06/30 06:26:43;;;;;;;9.25;5.10;;;;;;;22.55;100.00;98871.69;5114467;28;20199;-75
2023/06/30 06:29:14;;;;;;;5.78;4.45;;;;;;;23.02;100.00;98876.31;5114142;28;20737;-75
2023/06/30 06:31:43;;;;;;;5.38;4.60;;;;;;;22.82;100.00;98885.91;5114046;28;20683;-75
2023/06/30 06:34:09;;;;;;;6.28;4.65;;;;;;;23.30;100.00;98889.69;5109634;28;20249;-74
2023/06/30 06:36:37;;;;;;;7.15;4.90;;;;;;;23.66;100.00;98882.81;5111584;28;20220;-75
2023/06/30 06:39:03;;;;;;;4.78;4.13;;;;;;;23.94;100.00;98885.16;5111176;28;20200;-75
2023/06/30 06:41:31;;;;;;;6.78;4.50;;;;;;;23.88;100.00;98887.28;5101603;28;20240;-75
2023/06/30 06:43:58;;;;;;;5.80;4.55;;;;;;;24.13;100.00;98877.41;5101458;28;20338;-75
2023/06/30 06:46:24;;;;;;;5.22;4.72;;;;;;;24.36;100.00;98875.25;5110726;28;20668;-75
2023/06/30 06:48:51;;;;;;;5.80;4.60;;;;;;;23.63;100.00;98878.00;5102370;28;20624;-74
2023/06/30 06:51:18;;;;;;;5.15;4.65;;;;;;;23.69;100.00;98881.38;5100479;28;20186;-76
2023/06/30 06:53:45;;;;;;;6.13;4.43;;;;;;;24.08;100.00;98883.84;5109237;28;20652;-76
2023/06/30 06:56:11;;;;;;;4.35;3.97;;;;;;;24.39;100.00;98880.09;5107991;28;20222;-76
2023/06/30 06:58:38;;;;;;;4.72;4.30;;;;;;;24.37;100.00;98872.19;5102010;28;20193;-74
2023/06/30 07:01:05;;;;;;;4.40;4.00;;;;;;;24.55;100.00;98878.38;5101532;28;20239;-77
2023/06/30 07:03:32;;;;;;;5.10;4.60;;;;;;;23.84;100.00;98874.59;5109968;28;20262;-76
2023/06/30 07:05:59;;;;;;;4.75;4.30;;;;;;;24.08;100.00;98869.38;5099244;28;20210;-76
2023/06/30 07:08:26;;;;;;;4.50;4.10;;;;;;;24.35;100.00;98871.75;5104203;28;20262;-75
2023/06/30 07:10:53;;;;;;;5.35;4.18;;;;;;;24.59;100.00;98871.13;5109319;28;20199;-75
2023/06/30 07:13:21;;;;;;;4.70;4.30;;;;;;;24.75;100.00;98874.09;5107714;28;20316;-75
2023/06/30 07:15:48;;;;;;;4.93;4.50;;;;;;;24.74;100.00;98867.03;5100224;28;20602;-75
2023/06/30 07:18:17;;;;;;;6.30;4.20;;;;;;;24.59;100.00;98873.84;5104827;28;20242;-75
2023/06/30 07:20:48;;;;;;;5.75;4.47;;;;;;;24.70;100.00;98874.28;5107447;28;20223;-75
2023/06/30 07:23:15;;;;;;;4.43;4.10;;;;;;;25.01;100.00;98872.03;5099652;28;20654;-76
2023/06/30 07:25:43;;;;;;;5.65;4.35;;;;;;;25.20;100.00;98877.88;5103573;28;20277;-75
2023/06/30 07:28:11;;;;;;;5.18;4.68;;;;;;;25.34;100.00;98869.38;5106482;28;20207;-74
2023/06/30 07:30:39;;;;;;;4.57;4.18;;;;;;;25.53;100.00;98866.97;5088987;28;20281;-75
2023/06/30 07:33:08;;;;;;;4.65;4.25;;;;;;;25.60;100.00;98867.25;5102303;28;20207;-77
2023/06/30 07:35:34;;;;;;;5.07;4.68;;;;;;;24.92;100.00;98865.81;5100416;28;20195;-74
2023/06/30 07:38:01;;;;;;;5.65;4.03;;;;;;;25.32;100.00;98867.00;5091991;28;20570;-77
2023/06/30 07:40:28;;;;;;;4.95;4.25;;;;;;;24.90;100.00;98863.41;5112088;28;20278;-76
2023/06/30 07:43:11;;;;;;;5.03;4.55;;;;;;;25.41;100.00;98864.16;5105842;28;20249;-76
2023/06/30 07:45:38;;;;;;;5.05;4.65;;;;;;;25.64;100.00;98861.91;5106508;28;20253;-76
2023/06/30 07:48:05;;;;;;;4.40;4.00;;;;;;;25.01;100.00;98858.34;5102256;28;20249;-76
2023/06/30 07:50:32;;;;;;;4.80;4.10;;;;;;;24.86;100.00;98858.91;5106342;28;20186;-77
2023/06/30 07:52:58;;;;;;;4.80;4.20;;;;;;;24.98;100.00;98865.28;5103068;28;20199;-76
2023/06/30 07:55:25;;;;;;;4.82;4.35;;;;;;;25.27;100.00;98855.41;5101134;28;20618;-76
2023/06/30 07:57:52;;;;;;;4.72;3.65;;;;;;;25.67;100.00;98864.75;5104342;28;20294;-76
2023/06/30 08:00:19;;;;;;;5.90;4.93;;;;;;;24.85;100.00;98858.09;5104680;28;20274;-76
2023/06/30 08:02:46;;;;;;;4.45;3.88;;;;;;;25.42;100.00;98852.88;5099039;28;20224;-76
2023/06/30 08:05:13;;;;;;;5.97;4.50;;;;;;;25.35;100.00;98860.81;5103957;28;20280;-76
2023/06/30 08:07:40;;;;;;;5.60;4.28;;;;;;;25.54;100.00;98856.78;5088109;28;20220;-76
2023/06/30 08:10:16;;;;;;;7.00;4.03;;;;;;;25.88;100.00;98852.94;5108210;28;20246;-75
2023/06/30 08:12:43;;;;;;;5.70;4.28;;;;;;;26.04;100.00;98859.38;5103657;28;20275;-75
2023/06/30 08:15:10;;;;;;;6.15;4.50;;;;;;;26.18;100.00;98851.63;5106875;28;20203;-75
2023/06/30 08:17:36;;;;;;;5.35;4.13;;;;;;;26.14;100.00;98858.94;5109080;28;20226;-76
2023/06/30 08:20:23;;;;;;;4.53;4.10;;;;;;;25.93;100.00;98858.22;5105461;28;20199;-75
2023/06/30 08:22:50;;;;;;;5.10;4.60;;;;;;;25.99;100.00;98854.91;5109077;28;20279;-78
2023/06/30 08:25:21;;;;;;;4.95;4.60;;;;;;;25.98;100.00;98858.81;5106518;28;20200;-76
2023/06/30 08:27:48;;;;;;;5.18;4.75;;;;;;;25.90;100.00;98858.91;5109134;28;20237;-74
2023/06/30 08:30:15;;;;;;;4.32;3.92;;;;;;;26.26;100.00;98859.00;5100543;28;20220;-75
2023/06/30 08:32:42;;;;;;;4.72;4.30;;;;;;;26.37;100.00;98853.84;5101435;28;20200;-77
2023/06/30 08:35:09;;;;;;;7.22;4.63;;;;;;;26.16;98.24;98842.94;5104542;28;20191;-76
2023/06/30 08:37:37;;;;;;;4.82;4.07;;;;;;;26.37;99.50;98848.38;5107137;28;20243;-75
2023/06/30 08:40:05;;;;;;;6.15;4.38;;;;;;;26.41;98.91;98852.81;5103625;28;20191;-76
2023/06/30 08:42:36;;;;;;;5.10;4.00;;;;;;;26.73;97.85;98842.88;5104184;28;20196;-77
2023/06/30 08:45:03;;;;;;;4.80;4.32;;;;;;;26.86;95.38;98835.47;5099339;28;20195;-76
2023/06/30 08:47:32;;;;;;;6.22;4.35;;;;;;;26.59;96.33;98837.75;5108478;28;20707;-76
2023/06/30 08:49:59;;;;;;;4.40;4.10;;;;;;;25.92;96.95;98827.22;5107702;28;20191;-77
2023/06/30 08:52:25;;;;;;;4.00;3.70;;;;;;;26.28;97.75;98837.50;5105086;28;20215;-79
2023/06/30 08:54:53;;;;;;;5.97;4.10;;;;;;;26.57;97.04;98845.53;5105165;28;20202;-76
2023/06/30 08:57:20;;;;;;;5.15;4.20;;;;;;;26.88;94.10;98842.19;5093922;28;20232;-76
2023/06/30 08:59:47;;;;;;;4.90;3.83;;;;;;;27.07;91.28;98841.59;5095004;28;20180;-74
2023/06/30 09:02:14;;;;;;;4.22;3.92;;;;;;;27.24;91.85;98848.78;5093211;28;20193;-76
2023/06/30 09:04:41;;;;;;;5.80;3.60;;;;;;;27.26;91.64;98839.03;5105215;28;20690;-74
2023/06/30 09:07:09;;;;;;;5.75;3.90;;;;;;;26.98;91.04;98840.91;5082823;28;20815;-75
2023/06/30 09:09:45;;;;;;;6.63;4.78;;;;;;;26.83;90.63;98842.41;5104172;28;20195;-79
2023/06/30 09:12:12;;;;;;;4.10;3.70;;;;;;;27.23;90.16;98836.16;5105038;28;20209;-76
2023/06/30 09:14:40;;;;;;;4.43;3.75;;;;;;;27.49;90.29;98836.56;5094245;28;20219;-78
2023/06/30 09:17:07;;;;;;;6.15;4.15;;;;;;;27.20;90.91;98837.69;5111207;28;20719;-78
2023/06/30 09:19:35;;;;;;;5.85;3.97;;;;;;;27.46;90.66;98835.28;5104156;28;20207;-77
2023/06/30 09:22:05;;;;;;;5.28;4.25;;;;;;;27.15;92.71;98827.72;5111203;28;20226;-77
2023/06/30 09:24:51;;;;;;;7.75;4.32;;;;;;;27.57;87.23;98825.44;5103270;28;20191;-78
2023/06/30 09:27:18;;;;;;;8.45;4.45;;;;;;;27.78;87.83;98827.13;5110754;28;20223;-77
2023/06/30 09:29:55;;;;;;;4.43;3.63;;;;;;;28.00;88.87;98824.59;5085291;28;20645;-78
2023/06/30 09:32:29;;;;;;;4.63;3.80;;;;;;;27.99;85.44;98825.78;5087855;28;20192;-78
2023/06/30 09:34:56;;;;;;;7.45;4.03;;;;;;;28.19;86.93;98826.69;5099313;28;20260;-77
2023/06/30 09:37:23;;;;;;;4.25;3.85;;;;;;;28.38;85.87;98828.72;5104083;28;20236;-77
2023/06/30 09:39:51;;;;;;;4.22;3.83;;;;;;;28.43;83.34;98820.19;5090611;28;20204;-77
2023/06/30 09:42:18;;;;;;;4.20;3.80;;;;;;;28.59;80.90;98822.94;5108458;28;20211;-78
2023/06/30 09:44:45;;;;;;;4.00;3.60;;;;;;;28.73;78.95;98826.06;5093913;28;20196;-78
2023/06/30 09:47:12;;;;;;;6.68;3.60;;;;;;;28.96;76.63;98820.66;5110321;28;20630;-77
2023/06/30 09:49:42;;;;;;;3.78;3.47;;;;;;;28.78;74.68;98807.28;5112883;28;20203;-77
2023/06/30 09:52:09;;;;;;;3.88;3.47;;;;;;;29.12;75.14;98811.16;5110007;28;20195;-77
2023/06/30 09:54:36;;;;;;;4.07;3.47;;;;;;;29.12;76.85;98807.59;5111275;28;20223;-78
2023/06/30 09:57:10;;;;;;;3.80;3.50;;;;;;;29.28;76.48;98808.34;5092710;28;20218;-77
2023/06/30 09:59:37;;;;;;;4.28;3.38;;;;;;;29.39;76.63;98809.41;5111128;28;20187;-77
2023/06/30 10:02:04;;;;;;;3.78;3.40;;;;;;;29.51;77.01;98811.19;5110110;28;20192;-78
2023/06/30 10:04:30;;;;;;;3.60;3.30;;;;;;;29.51;75.01;98803.72;5107948;28;20765;-79
2023/06/30 10:06:58;;;;;;;3.70;3.40;;;;;;;29.52;71.91;98799.00;5111098;28;20211;-78
2023/06/30 10:09:25;;;;;;;4.95;3.28;;;;;;;29.66;70.71;98799.28;5110286;28;20188;-78
2023/06/30 10:11:53;;;;;;;4.00;3.60;;;;;;;29.32;70.66;98792.69;5111422;28;20192;-78
2023/06/30 10:14:27;;;;;;;3.97;3.40;;;;;;;29.52;70.91;98796.25;5109155;28;20216;-78
2023/06/30 10:16:55;;;;;;;3.67;3.30;;;;;;;29.50;72.79;98790.28;5112308;28;20276;-77
2023/06/30 10:19:23;;;;;;;4.82;3.30;;;;;;;29.57;71.53;98782.94;5103341;28;20280;-78
2023/06/30 10:21:50;;;;;;;3.67;3.38;;;;;;;29.66;72.42;98783.50;5114359;28;20188;-78
2023/06/30 10:24:23;;;;;;;3.72;3.40;;;;;;;29.91;73.73;98780.44;5094962;28;20258;-77
2023/06/30 10:26:50;;;;;;;4.05;3.40;;;;;;;30.05;77.51;98770.41;5099467;28;21065;-78
2023/06/30 10:29:18;;;;;;;4.15;3.75;;;;;;;30.26;78.57;98780.22;5089645;28;20219;-78
2023/06/30 10:31:45;;;;;;;4.00;3.60;;;;;;;30.38;75.77;98780.00;5104667;28;20796;-78
2023/06/30 10:34:12;;;;;;;3.85;3.45;;;;;;;30.05;75.41;98778.69;5106189;28;20192;-77
2023/06/30 10:36:39;;;;;;;4.35;3.97;;;;;;;30.26;75.57;98771.94;5109668;28;20307;-77
2023/06/30 10:39:06;;;;;;;4.85;4.45;;;;;;;30.36;78.17;98772.09;5095539;28;20226;-77
2023/06/30 10:41:46;;;;;;;4.45;4.05;;;;;;;30.40;74.36;98769.41;5113681;28;20286;-79
2023/06/30 10:44:13;;;;;;;4.30;3.42;;;;;;;30.53;72.83;98760.56;5113427;28;20191;-78
2023/06/30 10:46:51;;;;;;;5.88;3.70;;;;;;;30.36;72.00;98752.78;5113490;28;20644;-78
2023/06/30 10:49:51;;;;;;;3.78;3.28;;;;;;;30.42;74.71;98761.53;5113590;28;20204;-78
2023/06/30 10:52:28;;;;;;;4.50;3.97;;;;;;;30.42;74.59;98753.25;5078270;28;20239;-78
2023/06/30 10:55:04;;;;;;;4.18;3.83;;;;;;;30.28;73.08;98751.06;5102881;28;20195;-79
2023/06/30 10:57:38;;;;;;;3.33;3.13;;;;;;;30.45;73.71;98750.56;5113516;28;20219;-79
2023/06/30 11:00:05;;;;;;;4.38;3.20;;;;;;;30.57;69.49;98755.88;5113910;28;20274;-78
2023/06/30 11:02:33;;;;;;;4.50;3.67;;;;;;;30.92;69.78;98752.81;5112300;28;20232;-77
2023/06/30 11:05:22;;;;;;;4.40;3.20;;;;;;;31.13;68.35;98746.75;5113451;28;20223;-78
2023/06/30 11:07:53;;;;;;;3.72;3.30;;;;;;;31.35;69.18;98747.81;5113435;28;20219;-78
2023/06/30 11:10:46;;;;;;;3.35;2.95;;;;;;;31.56;70.30;98739.75;5106417;28;20204;-77
2023/06/30 11:13:14;;;;;;;3.83;3.10;;;;;;;31.66;67.84;98735.50;5107935;28;20200;-78
2023/06/30 11:15:43;;;;;;;3.45;3.15;;;;;;;31.75;66.78;98728.47;5113262;28;20207;-78
2023/06/30 11:18:11;;;;;;;3.97;2.90;;;;;;;31.61;65.78;98728.34;5113123;28;20203;-75
2023/06/30 11:20:39;;;;;;;4.90;3.20;;;;;;;31.56;67.61;98725.13;5109857;28;20538;-77
2023/06/30 11:23:16;;;;;;;3.30;3.03;;;;;;;31.71;67.45;98722.13;5085032;28;20279;-75
2023/06/30 11:25:42;;;;;;;5.38;3.30;;;;;;;31.44;65.52;98715.91;5086593;28;20194;-77
2023/06/30 11:28:11;;;;;;;3.33;3.03;;;;;;;31.59;64.46;98716.06;5105099;28;20246;-79
2023/06/30 11:30:38;;;;;;;4.93;2.97;;;;;;;31.79;64.72;98712.69;5082463;28;20197;-79